Welcome to Northern Hawkes Bay. New Zealand.
PWS Header
      nz Flag



Hit Counter


W3C Valid W3C Valid logo


    Wairoa

Select any of the Stations below to visit their websites.










Historic Data from Weather Underground
Select the location of interest below. Wairoa is the default. Please have patience, this Data is slow to load in.
Northern Hawkes Bay Historical Data
Daily Summary for April 16, 2018 Units:  Metric    English   Both
« Previous Day
Next Day »
Daily Weekly Monthly Yearly Custom
  High: Low: Average:
Temperature: 25.9 °C 11.9 °C 18.8 °C
Dew Point: 17.2 °C 8.7 °C 11.8 °C
Humidity: 86% 44% 65%
Wind Speed: 20.9km/h 0.0km/h 6.5km/h
Wind Gust: 36.7km/h - -
Wind- - WNW
Pressure: 1008.0 hPa 1001.9 hPa -
Precipitation: 0.0 mm    
Historical Graphs
 
 
Tabular Data for April 16, 2018
Time Temperature Dew Point Pressure Wind Wind Speed Wind Gust Humidity Rainfall Rate (Hourly) solar
00:01 24.9 °C 17.2 °C 1001.9 hPa NW 15.8 km/h 30.6 km/h 62% 0.0 mm 124 W/m2
00:06 24.8 °C 16.0 °C 1001.9 hPa NW 17.2 km/h 27.0 km/h 58% 0.0 mm 114 W/m2
00:26 24.8 °C 14.9 °C 1002.6 hPa NW 8.7 km/h 18.3 km/h 54% 0.0 mm 87 W/m2
00:31 24.8 °C 15.2 °C 1002.6 hPa WNW 7.2 km/h 17.2 km/h 55% 0.0 mm 80 W/m2
00:36 24.8 °C 15.4 °C 1002.6 hPa NW 7.2 km/h 14.8 km/h 56% 0.0 mm 74 W/m2
00:41 24.5 °C 14.9 °C 1002.6 hPa NW 7.2 km/h 13.4 km/h 55% 0.0 mm 67 W/m2
00:46 24.1 °C 14.2 °C 1002.6 hPa NW 9.7 km/h 13.4 km/h 54% 0.0 mm 67 W/m2
00:51 23.9 °C 14.3 °C 1002.6 hPa NNW 9.7 km/h 17.2 km/h 55% 0.0 mm 59 W/m2
00:56 23.7 °C 14.7 °C 1002.6 hPa NW 11.1 km/h 19.5 km/h 57% 0.0 mm 51 W/m2
01:01 23.4 °C 14.2 °C 1002.9 hPa NW 11.1 km/h 19.5 km/h 56% 0.0 mm 38 W/m2
01:06 23.1 °C 14.1 °C 1002.6 hPa NNW 9.7 km/h 19.5 km/h 57% 0.0 mm 32 W/m2
01:11 22.6 °C 13.9 °C 1002.9 hPa NNW 9.7 km/h 20.9 km/h 58% 0.0 mm 22 W/m2
01:16 22.1 °C 13.7 °C 1002.9 hPa NW 8.7 km/h 21.9 km/h 59% 0.0 mm 18 W/m2
01:21 21.7 °C 14.1 °C 1002.9 hPa NW 8.7 km/h 21.9 km/h 62% 0.0 mm 12 W/m2
01:26 21.4 °C 14.1 °C 1002.9 hPa NNW 5.0 km/h 15.8 km/h 63% 0.0 mm 9 W/m2
01:31 21.1 °C 13.8 °C 1003.3 hPa NNW 3.5 km/h 14.8 km/h 63% 0.0 mm 6 W/m2
01:36 20.9 °C 14.1 °C 1003.6 hPa NW 1.1 km/h 12.2 km/h 65% 0.0 mm 3 W/m2
01:41 20.7 °C 14.1 °C 1003.3 hPa NW 1.1 km/h 9.7 km/h 66% 0.0 mm 1 W/m2
01:46 20.3 °C 14.0 °C 1003.6 hPa NW 6.1 km/h 11.1 km/h 67% 0.0 mm 0 W/m2
01:51 20.3 °C 14.0 °C 1003.9 hPa NW 2.6 km/h 11.1 km/h 67% 0.0 mm 0 W/m2
01:56 20.0 °C 13.7 °C 1003.6 hPa NW 1.1 km/h 9.7 km/h 67% 0.0 mm 0 W/m2
02:01 19.7 °C 13.9 °C 1003.9 hPa Calm   5.0 km/h 69% 0.0 mm 0 W/m2
02:06 19.5 °C 13.7 °C 1003.9 hPa Calm   5.0 km/h 69% 0.0 mm 0 W/m2
02:11 19.3 °C 13.7 °C 1003.9 hPa NW 2.6 km/h 3.5 km/h 70% 0.0 mm 0 W/m2
02:16 19.0 °C 13.4 °C 1003.6 hPa NNW 5.0 km/h 8.7 km/h 70% 0.0 mm 0 W/m2
02:21 19.0 °C 13.4 °C 1003.9 hPa NNW 3.5 km/h 12.2 km/h 70% 0.0 mm 0 W/m2
02:26 19.0 °C 13.4 °C 1003.9 hPa NW 6.1 km/h 12.2 km/h 70% 0.0 mm 0 W/m2
02:31 18.7 °C 13.6 °C 1003.9 hPa NW 8.7 km/h 13.4 km/h 72% 0.0 mm 0 W/m2
02:36 19.1 °C 13.1 °C 1003.9 hPa NNW 8.7 km/h 17.2 km/h 68% 0.0 mm 0 W/m2
02:41 19.2 °C 12.9 °C 1003.9 hPa NNW 11.1 km/h 17.2 km/h 67% 0.0 mm 0 W/m2
02:46 19.3 °C 12.8 °C 1004.3 hPa NNW 8.7 km/h 15.8 km/h 66% 0.0 mm 0 W/m2
02:51 19.3 °C 12.8 °C 1004.3 hPa NNW 11.1 km/h 18.3 km/h 66% 0.0 mm 0 W/m2
02:56 19.2 °C 12.5 °C 1004.6 hPa NW 8.7 km/h 18.3 km/h 65% 0.0 mm 0 W/m2
03:01 19.0 °C 12.5 °C 1004.6 hPa NW 11.1 km/h 17.2 km/h 66% 0.0 mm 0 W/m2
03:19 18.8 °C 12.3 °C 1004.6 hPa NW 9.7 km/h 17.2 km/h 66% 0.0 mm 0 W/m2
03:24 18.8 °C 12.3 °C 1005.0 hPa NW 6.1 km/h 17.2 km/h 66% 0.0 mm 0 W/m2
03:29 18.7 °C 12.2 °C 1005.0 hPa NNW 1.1 km/h 9.7 km/h 66% 0.0 mm 0 W/m2
03:34 18.5 °C 12.1 °C 1005.3 hPa NW 3.5 km/h 9.7 km/h 66% 0.0 mm 0 W/m2
03:39 18.5 °C 12.1 °C 1005.3 hPa NW 5.0 km/h 12.2 km/h 66% 0.0 mm 0 W/m2
03:44 18.6 °C 12.1 °C 1005.0 hPa NW 6.1 km/h 12.2 km/h 66% 0.0 mm 0 W/m2
03:49 18.8 °C 12.1 °C 1005.3 hPa NNW 7.2 km/h 18.3 km/h 65% 0.0 mm 0 W/m2
03:54 18.9 °C 12.2 °C 1005.3 hPa NNW 8.7 km/h 21.9 km/h 65% 0.0 mm 0 W/m2
03:59 18.9 °C 12.2 °C 1005.6 hPa NNW 14.8 km/h 21.9 km/h 65% 0.0 mm 0 W/m2
04:04 18.9 °C 12.2 °C 1005.6 hPa NNW 11.1 km/h 20.9 km/h 65% 0.0 mm 0 W/m2
04:09 18.9 °C 12.2 °C 1005.3 hPa NNW 13.4 km/h 23.3 km/h 65% 0.0 mm 0 W/m2
04:14 18.9 °C 12.2 °C 1005.0 hPa NW 11.1 km/h 23.3 km/h 65% 0.0 mm 0 W/m2
04:19 18.7 °C 12.0 °C 1005.3 hPa NW 12.2 km/h 23.3 km/h 65% 0.0 mm 0 W/m2
04:24 18.9 °C 12.2 °C 1005.6 hPa NNW 6.1 km/h 23.3 km/h 65% 0.0 mm 0 W/m2
04:29 18.7 °C 12.0 °C 1005.6 hPa NNW 6.1 km/h 21.9 km/h 65% 0.0 mm 0 W/m2
04:34 18.6 °C 11.9 °C 1006.0 hPa NW 3.5 km/h 15.8 km/h 65% 0.0 mm 0 W/m2
04:39 18.4 °C 11.7 °C 1006.0 hPa NNW 3.5 km/h 12.2 km/h 65% 0.0 mm 0 W/m2
04:44 18.2 °C 11.8 °C 1006.0 hPa NNW 5.0 km/h 9.7 km/h 66% 0.0 mm 0 W/m2
05:00 17.7 °C 11.7 °C 1006.0 hPa NNW 5.0 km/h 11.1 km/h 68% 0.0 mm 0 W/m2
05:06 17.5 °C 11.8 °C 1006.3 hPa NNW 2.6 km/h 11.1 km/h 69% 0.0 mm 0 W/m2
05:11 17.4 °C 11.7 °C 1006.7 hPa North 1.1 km/h 11.1 km/h 69% 0.0 mm 0 W/m2
05:16 17.1 °C 11.6 °C 1006.7 hPa NNE 1.1 km/h 8.7 km/h 70% 0.0 mm 0 W/m2
05:21 16.9 °C 11.8 °C 1006.7 hPa Calm   5.0 km/h 72% 0.0 mm 0 W/m2
05:26 16.6 °C 11.7 °C 1006.7 hPa Calm   8.7 km/h 73% 0.0 mm 0 W/m2
05:31 16.6 °C 11.7 °C 1006.7 hPa North 2.6 km/h 8.7 km/h 73% 0.0 mm 0 W/m2
05:36 17.0 °C 11.7 °C 1007.0 hPa North 6.1 km/h 11.1 km/h 71% 0.0 mm 0 W/m2
05:41 17.0 °C 11.7 °C 1006.7 hPa North 5.0 km/h 11.1 km/h 71% 0.0 mm 0 W/m2
05:46 17.0 °C 11.5 °C 1006.7 hPa North 6.1 km/h 9.7 km/h 70% 0.0 mm 0 W/m2
05:51 17.0 °C 11.5 °C 1006.7 hPa NNW 6.1 km/h 11.1 km/h 70% 0.0 mm 0 W/m2
05:56 17.2 °C 11.4 °C 1006.7 hPa NNW 1.1 km/h 11.1 km/h 69% 0.0 mm 0 W/m2
06:01 17.2 °C 11.3 °C 1006.7 hPa Calm   7.2 km/h 68% 0.0 mm 0 W/m2
06:06 17.1 °C 11.2 °C 1007.0 hPa Calm   7.2 km/h 68% 0.0 mm 0 W/m2
06:11 17.0 °C 11.3 °C 1006.7 hPa North 3.5 km/h 6.1 km/h 69% 0.0 mm 0 W/m2
06:16 16.6 °C 11.3 °C 1006.7 hPa NNW 6.1 km/h 12.2 km/h 71% 0.0 mm 0 W/m2
06:21 16.7 °C 11.4 °C 1006.7 hPa NNW 6.1 km/h 12.2 km/h 71% 0.0 mm 0 W/m2
06:26 16.6 °C 11.6 °C 1006.7 hPa NNW 7.2 km/h 12.2 km/h 72% 0.0 mm 0 W/m2
06:31 16.4 °C 11.3 °C 1006.7 hPa NNW 6.1 km/h 14.8 km/h 72% 0.0 mm 0 W/m2
06:36 16.4 °C 11.3 °C 1006.7 hPa NNW 8.7 km/h 14.8 km/h 72% 0.0 mm 0 W/m2
06:41 16.4 °C 11.3 °C 1006.7 hPa NNW 5.0 km/h 14.8 km/h 72% 0.0 mm 0 W/m2
06:46 16.4 °C 11.1 °C 1007.0 hPa NNW 5.0 km/h 12.2 km/h 71% 0.0 mm 0 W/m2
06:51 16.3 °C 11.3 °C 1006.7 hPa NNW 8.7 km/h 13.4 km/h 72% 0.0 mm 0 W/m2
06:56 16.1 °C 11.3 °C 1006.7 hPa NNW 7.2 km/h 14.8 km/h 73% 0.0 mm 0 W/m2
07:01 15.8 °C 11.4 °C 1006.7 hPa NW 6.1 km/h 14.8 km/h 75% 0.0 mm 0 W/m2
07:06 15.5 °C 11.3 °C 1006.7 hPa NNW 3.5 km/h 12.2 km/h 76% 0.0 mm 0 W/m2
07:11 15.3 °C 11.1 °C 1007.0 hPa Calm   9.7 km/h 76% 0.0 mm 0 W/m2
07:16 15.0 °C 11.0 °C 1007.0 hPa Calm   5.0 km/h 77% 0.0 mm 0 W/m2
07:21 14.9 °C 11.3 °C 1007.0 hPa NW 6.1 km/h 8.7 km/h 79% 0.0 mm 0 W/m2
07:26 15.0 °C 11.4 °C 1006.7 hPa NW 8.7 km/h 12.2 km/h 79% 0.0 mm 0 W/m2
07:31 15.1 °C 11.3 °C 1006.7 hPa NW 9.7 km/h 12.2 km/h 78% 0.0 mm 0 W/m2
07:36 14.8 °C 11.2 °C 1006.7 hPa NW 5.0 km/h 12.2 km/h 79% 0.0 mm 0 W/m2
07:41 14.6 °C 11.0 °C 1006.7 hPa NW 1.1 km/h 11.1 km/h 79% 0.0 mm 0 W/m2
07:46 14.5 °C 11.1 °C 1006.7 hPa Calm   8.7 km/h 80% 0.0 mm 0 W/m2
07:51 14.3 °C 10.9 °C 1006.7 hPa ENE 2.6 km/h 3.5 km/h 80% 0.0 mm 0 W/m2
07:56 14.2 °C 11.0 °C 1007.0 hPa ENE 6.1 km/h 8.7 km/h 81% 0.0 mm 0 W/m2
08:01 14.5 °C 11.1 °C 1007.0 hPa ENE 5.0 km/h 8.7 km/h 80% 0.0 mm 0 W/m2
08:06 14.6 °C 11.0 °C 1007.0 hPa ENE 5.0 km/h 8.7 km/h 79% 0.0 mm 0 W/m2
08:11 15.0 °C 10.8 °C 1007.0 hPa Calm   7.2 km/h 76% 0.0 mm 0 W/m2
08:16 15.2 °C 10.6 °C 1007.0 hPa NNE 6.1 km/h 9.7 km/h 74% 0.0 mm 0 W/m2
08:21 15.6 °C 10.4 °C 1007.0 hPa NNW 8.7 km/h 12.2 km/h 71% 0.0 mm 0 W/m2
08:26 15.8 °C 9.9 °C 1006.7 hPa NW 9.7 km/h 15.8 km/h 68% 0.0 mm 0 W/m2
08:31 16.0 °C 9.4 °C 1007.0 hPa NW 9.7 km/h 17.2 km/h 65% 0.0 mm 0 W/m2
08:36 16.2 °C 9.4 °C 1007.0 hPa NNW 5.0 km/h 17.2 km/h 64% 0.0 mm 0 W/m2
08:41 16.3 °C 9.5 °C 1007.0 hPa NNW 5.0 km/h 15.8 km/h 64% 0.0 mm 0 W/m2
08:46 16.2 °C 9.4 °C 1007.3 hPa NNW 7.2 km/h 15.8 km/h 64% 0.0 mm 0 W/m2
08:51 16.1 °C 9.3 °C 1007.3 hPa North 2.6 km/h 15.8 km/h 64% 0.0 mm 0 W/m2
08:56 16.0 °C 9.2 °C 1007.3 hPa NNW 5.0 km/h 14.8 km/h 64% 0.0 mm 0 W/m2
09:01 15.9 °C 9.3 °C 1007.3 hPa NNW 5.0 km/h 9.7 km/h 65% 0.0 mm 0 W/m2
09:06 15.7 °C 9.4 °C 1007.3 hPa NNW 8.7 km/h 14.8 km/h 66% 0.0 mm 0 W/m2
09:11 15.7 °C 9.4 °C 1007.3 hPa NNW 6.1 km/h 14.8 km/h 66% 0.0 mm 0 W/m2
09:16 15.8 °C 9.4 °C 1007.3 hPa NNW 8.7 km/h 15.8 km/h 66% 0.0 mm 0 W/m2
09:21 16.0 °C 9.2 °C 1007.3 hPa NNW 7.2 km/h 18.3 km/h 64% 0.0 mm 0 W/m2
09:26 16.0 °C 8.9 °C 1007.3 hPa NNW 9.7 km/h 18.3 km/h 63% 0.0 mm 0 W/m2
09:31 15.9 °C 9.1 °C 1007.7 hPa NNW 9.7 km/h 15.8 km/h 64% 0.0 mm 0 W/m2
09:36 15.9 °C 9.1 °C 1007.7 hPa NNW 6.1 km/h 15.8 km/h 64% 0.0 mm 0 W/m2
09:41 15.9 °C 9.1 °C 1007.7 hPa North 11.1 km/h 17.2 km/h 64% 0.0 mm 0 W/m2
09:46 16.0 °C 8.7 °C 1007.7 hPa NNW 17.2 km/h 24.5 km/h 62% 0.0 mm 0 W/m2
09:51 16.0 °C 8.7 °C 1007.7 hPa NNW 18.3 km/h 24.5 km/h 62% 0.0 mm 0 W/m2
09:56 16.1 °C 9.1 °C 1007.7 hPa NW 11.1 km/h 27.0 km/h 63% 0.0 mm 0 W/m2
10:01 16.0 °C 8.9 °C 1007.7 hPa NW 14.8 km/h 27.0 km/h 63% 0.0 mm 0 W/m2
10:06 15.9 °C 9.3 °C 1007.7 hPa NNW 9.7 km/h 20.9 km/h 65% 0.0 mm 0 W/m2
10:11 15.9 °C 9.3 °C 1007.7 hPa North 9.7 km/h 19.5 km/h 65% 0.0 mm 0 W/m2
10:16 15.8 °C 9.4 °C 1007.3 hPa NNW 7.2 km/h 17.2 km/h 66% 0.0 mm 0 W/m2
10:21 15.6 °C 9.5 °C 1007.3 hPa NW 12.2 km/h 20.9 km/h 67% 0.0 mm 0 W/m2
10:26 15.7 °C 9.6 °C 1007.3 hPa NNW 14.8 km/h 20.9 km/h 67% 0.0 mm 0 W/m2
10:31 15.5 °C 9.6 °C 1007.3 hPa NNW 7.2 km/h 19.5 km/h 68% 0.0 mm 0 W/m2
10:36 15.4 °C 9.7 °C 1007.7 hPa North 6.1 km/h 19.5 km/h 69% 0.0 mm 0 W/m2
10:41 15.4 °C 9.7 °C 1007.3 hPa North 5.0 km/h 14.8 km/h 69% 0.0 mm 0 W/m2
10:46 15.5 °C 9.8 °C 1007.3 hPa North 3.5 km/h 14.8 km/h 69% 0.0 mm 0 W/m2
10:51 15.4 °C 9.7 °C 1007.7 hPa North 1.1 km/h 11.1 km/h 69% 0.0 mm 0 W/m2
10:56 15.3 °C 9.9 °C 1007.3 hPa NNE 5.0 km/h 12.2 km/h 70% 0.0 mm 0 W/m2
11:01 15.2 °C 9.8 °C 1007.3 hPa North 6.1 km/h 12.2 km/h 70% 0.0 mm 0 W/m2
11:06 15.1 °C 9.9 °C 1007.3 hPa North 7.2 km/h 13.4 km/h 71% 0.0 mm 0 W/m2
11:11 15.0 °C 10.0 °C 1007.3 hPa North 6.1 km/h 13.4 km/h 72% 0.0 mm 0 W/m2
11:16 15.2 °C 10.2 °C 1007.3 hPa North 5.0 km/h 13.4 km/h 72% 0.0 mm 0 W/m2
11:21 15.1 °C 10.1 °C 1007.3 hPa Calm   13.4 km/h 72% 0.0 mm 0 W/m2
11:26 15.1 °C 10.3 °C 1007.3 hPa North 3.5 km/h 8.7 km/h 73% 0.0 mm 0 W/m2
11:31 15.1 °C 10.3 °C 1007.3 hPa NNW 7.2 km/h 9.7 km/h 73% 0.0 mm 0 W/m2
11:36 15.2 °C 10.4 °C 1007.3 hPa NNW 6.1 km/h 13.4 km/h 73% 0.0 mm 0 W/m2
11:41 15.2 °C 10.4 °C 1007.3 hPa NNW 6.1 km/h 14.8 km/h 73% 0.0 mm 0 W/m2
11:46 15.2 °C 10.4 °C 1007.3 hPa NNW 3.5 km/h 14.8 km/h 73% 0.0 mm 0 W/m2
11:51 15.2 °C 10.4 °C 1007.0 hPa Calm   14.8 km/h 73% 0.0 mm 0 W/m2
11:56 15.0 °C 10.2 °C 1007.3 hPa Calm   13.4 km/h 73% 0.0 mm 0 W/m2
12:01 14.9 °C 10.5 °C 1007.3 hPa Calm   3.5 km/h 75% 0.0 mm 0 W/m2
12:06 14.9 °C 10.5 °C 1007.3 hPa Calm   3.5 km/h 75% 0.0 mm 0 W/m2
12:11 14.7 °C 10.3 °C 1007.0 hPa Calm   1.1 km/h 75% 0.0 mm 0 W/m2
12:16 14.5 °C 10.1 °C 1007.3 hPa Calm   1.1 km/h 75% 0.0 mm 0 W/m2
12:21 14.3 °C 10.1 °C 1007.0 hPa Calm   1.1 km/h 76% 0.0 mm 0 W/m2
12:26 14.1 °C 9.9 °C 1007.3 hPa Calm     76% 0.0 mm 0 W/m2
12:31 13.7 °C 9.7 °C 1007.3 hPa Calm     77% 0.0 mm 0 W/m2
12:36 13.6 °C 9.8 °C 1007.0 hPa Calm   1.1 km/h 78% 0.0 mm 0 W/m2
12:41 13.6 °C 10.1 °C 1007.3 hPa Calm   1.1 km/h 79% 0.0 mm 0 W/m2
12:46 13.4 °C 10.0 °C 1007.3 hPa Calm     80% 0.0 mm 0 W/m2
12:51 13.4 °C 10.0 °C 1007.3 hPa Calm     80% 0.0 mm 0 W/m2
12:56 13.4 °C 10.0 °C 1007.3 hPa Calm     80% 0.0 mm 0 W/m2
13:01 13.4 °C 10.2 °C 1007.3 hPa Calm   2.6 km/h 81% 0.0 mm 0 W/m2
13:06 13.4 °C 10.4 °C 1007.3 hPa Calm   2.6 km/h 82% 0.0 mm 0 W/m2
13:11 13.6 °C 10.6 °C 1007.3 hPa ENE 1.1 km/h 7.2 km/h 82% 0.0 mm 0 W/m2
13:16 14.0 °C 10.8 °C 1007.0 hPa Calm   7.2 km/h 81% 0.0 mm 0 W/m2
13:21 14.1 °C 10.7 °C 1007.3 hPa Calm   5.0 km/h 80% 0.0 mm 0 W/m2
13:26 14.0 °C 10.4 °C 1007.3 hPa Calm   5.0 km/h 79% 0.0 mm 0 W/m2
13:31 13.6 °C 10.2 °C 1007.0 hPa Calm   1.1 km/h 80% 0.0 mm 0 W/m2
13:36 13.4 °C 10.0 °C 1007.3 hPa Calm   1.1 km/h 80% 0.0 mm 0 W/m2
13:41 13.2 °C 10.0 °C 1007.3 hPa Calm   1.1 km/h 81% 0.0 mm 0 W/m2
13:46 13.0 °C 9.8 °C 1007.3 hPa NW 2.6 km/h 3.5 km/h 81% 0.0 mm 0 W/m2
13:51 12.6 °C 9.6 °C 1007.3 hPa WNW 1.1 km/h 7.2 km/h 82% 0.0 mm 0 W/m2
13:56 12.6 °C 9.8 °C 1007.3 hPa WNW 1.1 km/h 7.2 km/h 83% 0.0 mm 0 W/m2
14:01 12.8 °C 10.0 °C 1007.0 hPa NW 3.5 km/h 7.2 km/h 83% 0.0 mm 0 W/m2
14:06 12.9 °C 10.1 °C 1007.0 hPa NW 5.0 km/h 7.2 km/h 83% 0.0 mm 0 W/m2
14:11 13.0 °C 10.4 °C 1007.0 hPa NW 5.0 km/h 7.2 km/h 84% 0.0 mm 0 W/m2
14:16 13.0 °C 10.4 °C 1007.0 hPa Calm   7.2 km/h 84% 0.0 mm 0 W/m2
14:21 12.7 °C 9.9 °C 1007.3 hPa Calm   6.1 km/h 83% 0.0 mm 0 W/m2
14:26 12.6 °C 9.8 °C 1007.3 hPa Calm     83% 0.0 mm 0 W/m2
14:31 12.6 °C 9.9 °C 1007.3 hPa Calm   2.6 km/h 84% 0.0 mm 0 W/m2
14:36 12.5 °C 9.9 °C 1007.0 hPa Calm   2.6 km/h 84% 0.0 mm 0 W/m2
14:41 12.3 °C 9.7 °C 1007.0 hPa Calm   1.1 km/h 84% 0.0 mm 2 W/m2
14:46 12.1 °C 9.5 °C 1007.3 hPa Calm     84% 0.0 mm 4 W/m2
14:51 11.9 °C 9.4 °C 1007.3 hPa Calm     85% 0.0 mm 7 W/m2
14:56 12.0 °C 9.6 °C 1007.3 hPa Calm   1.1 km/h 85% 0.0 mm 11 W/m2
15:01 12.2 °C 9.9 °C 1007.3 hPa ENE 2.6 km/h 9.7 km/h 86% 0.0 mm 17 W/m2
15:06 13.1 °C 10.8 °C 1007.3 hPa ENE 5.0 km/h 9.7 km/h 86% 0.0 mm 56 W/m2
15:11 14.1 °C 11.4 °C 1007.3 hPa Calm   8.7 km/h 84% 0.0 mm 70 W/m2
15:16 15.0 °C 11.6 °C 1007.3 hPa Calm   7.2 km/h 80% 0.0 mm 83 W/m2
15:21 15.2 °C 11.2 °C 1007.3 hPa Calm   5.0 km/h 77% 0.0 mm 94 W/m2
15:26 14.9 °C 10.9 °C 1007.0 hPa NW 2.6 km/h 6.1 km/h 77% 0.0 mm 105 W/m2
15:31 14.6 °C 10.8 °C 1007.0 hPa NW 6.1 km/h 7.2 km/h 78% 0.0 mm 115 W/m2
15:36 14.4 °C 11.0 °C 1007.3 hPa NW 6.1 km/h 9.7 km/h 80% 0.0 mm 125 W/m2
15:41 14.3 °C 10.9 °C 1007.3 hPa NW 5.0 km/h 12.2 km/h 80% 0.0 mm 136 W/m2
15:46 14.4 °C 11.2 °C 1007.3 hPa NW 5.0 km/h 13.4 km/h 81% 0.0 mm 147 W/m2
15:51 14.7 °C 11.5 °C 1007.3 hPa NW 2.6 km/h 13.4 km/h 81% 0.0 mm 157 W/m2
15:56 15.2 °C 11.6 °C 1007.3 hPa Calm   8.7 km/h 79% 0.0 mm 167 W/m2
16:01 15.8 °C 12.2 °C 1007.3 hPa Calm   6.1 km/h 79% 0.0 mm 179 W/m2
16:06 16.3 °C 12.1 °C 1007.7 hPa Calm   6.1 km/h 76% 0.0 mm 191 W/m2
16:11 17.2 °C 12.6 °C 1007.7 hPa Calm   6.1 km/h 74% 0.0 mm 202 W/m2
16:16 18.1 °C 13.2 °C 1007.7 hPa Calm   2.6 km/h 73% 0.0 mm 216 W/m2
16:21 19.0 °C 12.9 °C 1007.7 hPa Calm   2.6 km/h 68% 0.0 mm 232 W/m2
16:26 19.3 °C 12.8 °C 1008.0 hPa Calm   2.6 km/h 66% 0.0 mm 243 W/m2
16:31 19.7 °C 13.2 °C 1008.0 hPa Calm   2.6 km/h 66% 0.0 mm 257 W/m2
16:36 20.7 °C 13.7 °C 1008.0 hPa Calm     64% 0.0 mm 271 W/m2
16:41 21.7 °C 14.1 °C 1008.0 hPa Calm   1.1 km/h 62% 0.0 mm 284 W/m2
16:46 22.3 °C 13.1 °C 1008.0 hPa Calm   1.1 km/h 56% 0.0 mm 293 W/m2
16:51 22.6 °C 12.6 °C 1008.0 hPa NE 1.1 km/h 5.0 km/h 53% 0.0 mm 302 W/m2
16:54 22.6 °C 12.6 °C 1007.7 hPa NNE 1.1 km/h 7.2 km/h 53% 0.0 mm 305 W/m2
16:59 22.4 °C 12.1 °C 1007.7 hPa NNE 2.6 km/h 9.7 km/h 52% 0.0 mm 311 W/m2
17:04 22.1 °C 11.8 °C 1007.7 hPa NNE 3.5 km/h 9.7 km/h 52% 0.0 mm 316 W/m2
17:09 21.9 °C 12.2 °C 1008.0 hPa Calm   7.2 km/h 54% 0.0 mm 320 W/m2
17:14 22.6 °C 12.6 °C 1008.0 hPa NNE 2.6 km/h 7.2 km/h 53% 0.0 mm 325 W/m2
17:19 22.9 °C 12.6 °C 1008.0 hPa Calm   7.2 km/h 52% 0.0 mm 330 W/m2
17:24 22.8 °C 12.2 °C 1008.0 hPa North 3.5 km/h 7.2 km/h 51% 0.0 mm 330 W/m2
17:43 22.9 °C 12.8 °C 1007.7 hPa North 3.5 km/h 13.4 km/h 53% 0.0 mm 79 W/m2
17:48 22.8 °C 12.4 °C 1008.0 hPa North 9.7 km/h 17.2 km/h 52% 0.0 mm 71 W/m2
17:53 22.4 °C 12.4 °C 1007.7 hPa NNW 5.0 km/h 17.2 km/h 53% 0.0 mm 64 W/m2
17:58 22.6 °C 12.6 °C 1007.7 hPa NNW 7.2 km/h 17.2 km/h 53% 0.0 mm 61 W/m2
18:03 22.9 °C 12.8 °C 1007.7 hPa NNW 5.0 km/h 15.8 km/h 53% 0.0 mm 60 W/m2
18:08 22.8 °C 12.7 °C 1007.7 hPa NNW 12.2 km/h 21.9 km/h 53% 0.0 mm 58 W/m2
18:13 22.6 °C 12.6 °C 1007.7 hPa NW 9.7 km/h 24.5 km/h 53% 0.0 mm 58 W/m2
18:18 22.4 °C 12.7 °C 1007.3 hPa NW 9.7 km/h 28.0 km/h 54% 0.0 mm 59 W/m2
18:23 22.6 °C 12.8 °C 1007.3 hPa NW 9.7 km/h 28.0 km/h 54% 0.0 mm 63 W/m2
18:28 22.8 °C 13.3 °C 1007.7 hPa NW 13.4 km/h 21.9 km/h 55% 0.0 mm 67 W/m2
18:33 22.8 °C 13.0 °C 1007.7 hPa NNW 7.2 km/h 19.5 km/h 54% 0.0 mm 97 W/m2
18:38 23.1 °C 13.3 °C 1007.7 hPa NW 19.5 km/h 23.3 km/h 54% 0.0 mm 322 W/m2
18:43 22.8 °C 13.0 °C 1007.7 hPa NW 11.1 km/h 23.3 km/h 54% 0.0 mm 357 W/m2
18:48 22.7 °C 12.9 °C 1007.3 hPa NNW 12.2 km/h 24.5 km/h 54% 0.0 mm 352 W/m2
18:53 22.9 °C 13.1 °C 1007.7 hPa NNW 6.1 km/h 24.5 km/h 54% 0.0 mm 120 W/m2
18:58 23.3 °C 13.8 °C 1007.3 hPa North 8.7 km/h 17.2 km/h 55% 0.0 mm 145 W/m2
19:03 23.2 °C 12.8 °C 1007.3 hPa North 11.1 km/h 18.3 km/h 52% 0.0 mm 390 W/m2
19:08 23.1 °C 12.7 °C 1007.3 hPa NNW 11.1 km/h 19.5 km/h 52% 0.0 mm 380 W/m2
19:13 23.0 °C 12.6 °C 1007.3 hPa NNW 12.2 km/h 21.9 km/h 52% 0.0 mm 397 W/m2
19:18 23.0 °C 12.3 °C 1007.3 hPa NNW 8.7 km/h 21.9 km/h 51% 0.0 mm 398 W/m2
19:23 23.2 °C 12.5 °C 1007.0 hPa NNW 13.4 km/h 24.5 km/h 51% 0.0 mm 401 W/m2
19:28 23.4 °C 13.0 °C 1007.0 hPa NNW 11.1 km/h 24.5 km/h 52% 0.0 mm 408 W/m2
19:33 23.6 °C 12.3 °C 1007.0 hPa NNW 7.2 km/h 24.5 km/h 49% 0.0 mm 409 W/m2
19:38 23.8 °C 12.8 °C 1007.0 hPa NNW 14.8 km/h 24.5 km/h 50% 0.0 mm 411 W/m2
19:43 24.0 °C 12.9 °C 1007.0 hPa NNW 14.8 km/h 23.3 km/h 50% 0.0 mm 417 W/m2
19:48 24.0 °C 12.3 °C 1007.0 hPa NNW 12.2 km/h 27.0 km/h 48% 0.0 mm 419 W/m2
19:53 24.0 °C 12.3 °C 1006.7 hPa NNW 12.2 km/h 27.0 km/h 48% 0.0 mm 421 W/m2
19:58 24.0 °C 12.3 °C 1007.0 hPa NNW 19.5 km/h 30.6 km/h 48% 0.0 mm 416 W/m2
20:03 23.9 °C 12.2 °C 1006.7 hPa NNW 19.5 km/h 31.7 km/h 48% 0.0 mm 411 W/m2
20:08 24.0 °C 12.3 °C 1007.0 hPa NW 14.8 km/h 31.7 km/h 48% 0.0 mm 415 W/m2
20:13 24.0 °C 12.7 °C 1007.0 hPa NW 13.4 km/h 29.4 km/h 49% 0.0 mm 416 W/m2
20:18 24.0 °C 12.3 °C 1007.0 hPa NW 20.9 km/h 31.7 km/h 48% 0.0 mm 413 W/m2
20:23 24.4 °C 13.0 °C 1007.0 hPa NW 14.8 km/h 31.7 km/h 49% 0.0 mm 413 W/m2
20:28 24.4 °C 12.7 °C 1006.7 hPa NW 12.2 km/h 31.7 km/h 48% 0.0 mm 413 W/m2
20:33 24.4 °C 13.0 °C 1006.7 hPa NW 8.7 km/h 31.7 km/h 49% 0.0 mm 411 W/m2
20:38 24.7 °C 13.3 °C 1006.7 hPa NW 12.2 km/h 27.0 km/h 49% 0.0 mm 408 W/m2
20:43 24.8 °C 13.1 °C 1006.7 hPa NW 9.7 km/h 20.9 km/h 48% 0.0 mm 407 W/m2
20:48 24.8 °C 13.1 °C 1006.7 hPa NNW 8.7 km/h 21.9 km/h 48% 0.0 mm 404 W/m2
20:53 25.0 °C 12.9 °C 1006.7 hPa NW 12.2 km/h 21.9 km/h 47% 0.0 mm 405 W/m2
20:58 25.1 °C 13.0 °C 1006.7 hPa WNW 12.2 km/h 21.9 km/h 47% 0.0 mm 419 W/m2
21:03 25.2 °C 12.8 °C 1006.3 hPa NW 11.1 km/h 21.9 km/h 46% 0.0 mm 399 W/m2
21:08 25.1 °C 12.3 °C 1006.3 hPa NW 14.8 km/h 23.3 km/h 45% 0.0 mm 366 W/m2
21:13 25.1 °C 12.7 °C 1006.3 hPa NW 13.4 km/h 23.3 km/h 46% 0.0 mm 339 W/m2
21:18 25.0 °C 12.6 °C 1006.7 hPa NW 18.3 km/h 29.4 km/h 46% 0.0 mm 198 W/m2
21:23 24.4 °C 12.1 °C 1006.3 hPa NW 11.1 km/h 29.4 km/h 46% 0.0 mm 402 W/m2
21:28 25.0 °C 12.9 °C 1006.3 hPa NNW 18.3 km/h 29.4 km/h 47% 0.0 mm 255 W/m2
21:47 25.4 °C 12.6 °C 1006.0 hPa NW 11.1 km/h 25.6 km/h 45% 0.0 mm 269 W/m2
21:52 25.3 °C 12.6 °C 1006.0 hPa NW 13.4 km/h 29.4 km/h 45% 0.0 mm 305 W/m2
21:57 25.4 °C 12.6 °C 1006.0 hPa NW 11.1 km/h 30.6 km/h 45% 0.0 mm 286 W/m2
22:02 25.4 °C 12.6 °C 1005.6 hPa NW 20.9 km/h 31.7 km/h 45% 0.0 mm 285 W/m2
22:07 25.5 °C 13.1 °C 1005.6 hPa NNW 14.8 km/h 31.7 km/h 46% 0.0 mm 273 W/m2
22:12 25.5 °C 12.7 °C 1005.6 hPa North 9.7 km/h 27.0 km/h 45% 0.0 mm 232 W/m2
22:17 25.9 °C 13.1 °C 1006.0 hPa NNW 19.5 km/h 27.0 km/h 45% 0.0 mm 176 W/m2
22:22 25.9 °C 13.1 °C 1006.0 hPa NW 12.2 km/h 24.5 km/h 45% 0.0 mm 232 W/m2
22:27 25.4 °C 12.6 °C 1005.6 hPa NNW 11.1 km/h 29.4 km/h 45% 0.0 mm 156 W/m2
22:32 25.6 °C 12.8 °C 1005.6 hPa NNW 5.0 km/h 29.4 km/h 45% 0.0 mm 154 W/m2
22:37 25.4 °C 12.3 °C 1005.6 hPa NNW 19.5 km/h 36.7 km/h 44% 0.0 mm 128 W/m2
22:42 24.6 °C 12.9 °C 1005.6 hPa NW 15.8 km/h 36.7 km/h 48% 0.0 mm 133 W/m2
22:47 24.1 °C 12.1 °C 1005.6 hPa NW 14.8 km/h 28.0 km/h 47% 0.0 mm 124 W/m2
22:52 24.6 °C 13.2 °C 1005.6 hPa NW 18.3 km/h 25.6 km/h 49% 0.0 mm 119 W/m2
22:57 25.1 °C 13.3 °C 1005.6 hPa NNW 12.2 km/h 29.4 km/h 48% 0.0 mm 110 W/m2
23:02 25.4 °C 13.3 °C 1005.6 hPa NW 15.8 km/h 29.4 km/h 47% 0.0 mm 117 W/m2
23:07 25.5 °C 13.4 °C 1005.6 hPa NNW 11.1 km/h 25.6 km/h 47% 0.0 mm 193 W/m2
23:12 25.0 °C 13.2 °C 1005.6 hPa NNW 9.7 km/h 24.5 km/h 48% 0.0 mm 188 W/m2
23:17 24.1 °C 13.1 °C 1006.0 hPa North 6.1 km/h 24.5 km/h 50% 0.0 mm 81 W/m2
23:22 23.5 °C 13.7 °C 1006.0 hPa North 12.2 km/h 24.5 km/h 54% 0.0 mm 74 W/m2
23:27 23.1 °C 13.8 °C 1005.6 hPa NNW 5.0 km/h 24.5 km/h 56% 0.0 mm 57 W/m2
23:32 22.6 °C 13.9 °C 1005.6 hPa NNW 7.2 km/h 17.2 km/h 58% 0.0 mm 55 W/m2
23:37 22.4 °C 14.0 °C 1005.6 hPa NNW 7.2 km/h 17.2 km/h 59% 0.0 mm 44 W/m2
23:42 22.2 °C 13.8 °C 1005.6 hPa North 8.7 km/h 14.8 km/h 59% 0.0 mm 41 W/m2
23:47 22.2 °C 14.1 °C 1005.6 hPa NNE 2.6 km/h 14.8 km/h 60% 0.0 mm 36 W/m2
23:52 22.0 °C 14.2 °C 1005.6 hPa NNE 9.7 km/h 14.8 km/h 61% 0.0 mm 28 W/m2
23:57 21.9 °C 14.3 °C 1005.6 hPa North 3.5 km/h 14.8 km/h 62% 0.0 mm 29 W/m2
Northern Hawkes Bay. New Zealand Historic Data
Compliments of Weather Underground - 2 mb